AirNav   Air Wisconsin Up To $57,000 Bonus
 
 1469 users online  

2FD4 Port Everglades Heliport
Fort Lauderdale, Florida, USA

GOING TO FORT LAUDERDALE?


FAA INFORMATION EFFECTIVE 07 NOVEMBER 2019

Location

FAA Identifier: 2FD4
Lat/Long: 26-05-46.3130N 080-06-49.1590W
26-05.771883N 080-06.819317W
26.0961981,-80.1136553
(estimated)
Elevation: 25 ft. / 8 m (estimated)
Variation: 03W (1985)
From city: 4 miles SE of FORT LAUDERDALE, FL
Time zone: UTC -5 (UTC -4 during Daylight Saving Time)
Zip code: 33316

Heliport Operations

Heliport use: Private use. Permission required prior to landing
Activation date: 09/1987
Control tower: no
ARTCC: MIAMI CENTER
FSS: MIAMI FLIGHT SERVICE STATION
Attendance: UNATNDD
Segmented circle: no

Heliport Communications

WX ASOS at FLL (2.4 nm SW): PHONE 954-359-7857
WX ASOS at FXE (7 nm NW): PHONE 954-772-2537
WX ASOS at HWO (9 nm SW): PHONE 954-983-5904
WX ASOS at PMP (9 nm N): PHONE 954-783-3720
WX ASOS at OPF (14 nm SW): 125.9 (305-681-4063)
WX AWOS-3 at BCT (17 nm N): 121.125 (561-391-2696)

Nearby radio navigation aids

VOR radial/distance  VOR name  Freq  Var
FLLr071/3.1FORT LAUDERDALE VOR/DME114.4006W
VKZr010/20.8VIRGINIA KEY VOR/DME117.1004W
DHPr040/21.8DOLPHIN VORTAC113.9004W
PBIr185/35.1PALM BEACH VORTAC115.7003W

Heliport Services

Runway Information

Helipad H1

Dimensions: 30 x 30 ft. / 9 x 9 m
Surface: concrete
ROOFTOP.
Traffic pattern: leftleft

Heliport Ownership and Management from official FAA records

Ownership: Privately-owned
Owner: REGER RAIA, JASMINE
2200 SE 21 ST
FT LAUDERDALE, FL 33316
Phone 805-981-2527
EXTENSION 100 OR 128.
Manager: REGER RAIA JASMINE
2200 SE 21 ST
FT LAUDERDALE, FL 33316
Phone 954-523-4600
ADDITIONAL PHONE: 561-212-2762

Additional Remarks

A52-H1 305' BLDG 2400' E & 270' BLDG 2400' N OF PAD.
FOR CD CTC MIAMI APCH AT 305-869-5432.

Instrument Procedures

There are no published instrument procedures at 2FD4.

Some nearby airports with instrument procedures:

KFLL - Fort Lauderdale/Hollywood International Airport (2 nm SW)
KFXE - Fort Lauderdale Executive Airport (7 nm NW)
KHWO - North Perry Airport (9 nm SW)
KPMP - Pompano Beach Airpark (9 nm N)
KOPF - Miami-Opa Locka Executive Airport (14 nm SW)
KBCT - Boca Raton Airport (17 nm N)
 
Loc | Ops | Rwys | IFR | FBO | Links
Com | Nav | Svcs | Stats | Notes


 
Area around 2FD4 (Port Everglades Heliport)
 
Road maps at: MapQuest Bing Google
 
Aerial photo
No photo
 
Sectional chart

 
Airport distance calculator
Flying to Port Everglades Heliport? Find the distance to fly.

From to 2FD4

Sunrise and sunset
Times for 12-Nov-2019
 Local
(UTC-5)
 Zulu
(UTC)
Morning civil twilight06:1411:14
Sunrise06:3811:38
Sunset17:3222:32
Evening civil twilight17:5622:56

Current date and time
Zulu (UTC)  12-Nov-2019 17:01:05
Local (UTC-5)  12-Nov-2019 12:01:05
 
METAR
KFLL 
3nm SW 
121653Z 27006KT 10SM SCT040 SCT060 BKN250 28/17 A2995 RMK AO2 SLP142 T02780172
KFXE 
7nm NW 
121653Z 23005KT 10SM FEW045 FEW065 28/17 A2996 RMK AO2 SLP146 T02830172
KHWO 
9nm SW 
121653Z 27006KT 10SM FEW048 SCT060 30/18 A2997 RMK AO2 SLP149 T03000178
KPMP 
9nm N 
121653Z 13004KT 10SM SCT032 27/18 A2998 RMK AO2 SLP151 T02720183 $
KOPF 
14nm SW 
121653Z 25007KT 10SM SCT050 BKN060 29/18 A2997 RMK AO2 SLP148 T02940178
KBCT 
17nm N 
121547Z 23006KT 10SM SCT036 29/20 A2998
TAF
KFLL 
3nm SW 
121440Z 1215/1318 VRB05KT P6SM FEW035 FEW050 SCT250 FM122200 21005KT P6SM FEW050 SCT110 FM130200 VRB04KT P6SM FEW100 FM131200 02008KT P6SM FEW035 SCT100
KFXE 
7nm NW 
121440Z 1215/1312 VRB03KT P6SM SCT060 SCT250 FM122300 20006KT P6SM FEW050 SCT110 FM130300 VRB03KT P6SM FEW100 FM131000 33006KT P6SM FEW035 SCT100
KOPF 
14nm SW 
121440Z 1215/1312 VRB03KT P6SM SCT035 SCT250 FM122200 20006KT P6SM FEW050 SCT110 FM130200 29006KT P6SM FEW100 FM130900 33006KT P6SM FEW030 SCT100
NOTAMs
Click for the latest NOTAMs
NOTAMs are issued by the DoD/FAA and will open in a separate window not controlled by AirNav.

 

 
 

Would you like to see your business listed on this page?

 If your business provides an interesting product or service to pilots, flight crews, aircraft, or users of the Port Everglades Heliport, you should consider listing it here.  To start the listing process, click on the button below
 
Add a business
 

Other Pages about Port Everglades Heliport

Update a link
 
Copyright © AirNav, LLC. All rights reserved. Privacy Policy  Contact